sensor_id;sensor_type;location;lat;lon;timestamp;P1;durP1;ratioP1;P2;durP2;ratioP2
5690;SDS011;2870;42.680;23.364;2023-10-19T00:00:01;17.70;;;12.97;;
5690;SDS011;2870;42.680;23.364;2023-10-19T00:02:45;19.90;;;13.73;;
5690;SDS011;2870;42.680;23.364;2023-10-19T00:05:11;24.17;;;14.47;;
5690;SDS011;2870;42.680;23.364;2023-10-19T00:07:41;19.97;;;14.70;;
5690;SDS011;2870;42.680;23.364;2023-10-19T00:10:07;22.00;;;13.57;;
5690;SDS011;2870;42.680;23.364;2023-10-19T00:12:35;18.07;;;13.07;;
5690;SDS011;2870;42.680;23.364;2023-10-19T00:15:02;22.07;;;13.87;;
5690;SDS011;2870;42.680;23.364;2023-10-19T00:17:30;24.00;;;14.23;;
5690;SDS011;2870;42.680;23.364;2023-10-19T00:19:57;21.87;;;12.87;;
5690;SDS011;2870;42.680;23.364;2023-10-19T00:22:47;18.23;;;13.63;;
5690;SDS011;2870;42.680;23.364;2023-10-19T00:25:13;20.63;;;13.63;;
5690;SDS011;2870;42.680;23.364;2023-10-19T00:27:40;20.43;;;13.63;;
5690;SDS011;2870;42.680;23.364;2023-10-19T00:30:08;27.60;;;13.33;;
5690;SDS011;2870;42.680;23.364;2023-10-19T00:32:35;21.00;;;14.40;;
5690;SDS011;2870;42.680;23.364;2023-10-19T00:35:04;23.77;;;13.80;;
5690;SDS011;2870;42.680;23.364;2023-10-19T00:37:53;18.67;;;12.17;;
5690;SDS011;2870;42.680;23.364;2023-10-19T00:40:37;28.53;;;13.70;;
5690;SDS011;2870;42.680;23.364;2023-10-19T00:43:06;18.60;;;13.57;;
5690;SDS011;2870;42.680;23.364;2023-10-19T00:45:35;19.70;;;12.80;;
5690;SDS011;2870;42.680;23.364;2023-10-19T00:48:05;24.60;;;14.70;;
5690;SDS011;2870;42.680;23.364;2023-10-19T00:50:36;23.23;;;14.80;;
5690;SDS011;2870;42.680;23.364;2023-10-19T00:53:05;16.90;;;12.97;;
5690;SDS011;2870;42.680;23.364;2023-10-19T00:55:33;24.50;;;15.00;;
5690;SDS011;2870;42.680;23.364;2023-10-19T00:58:01;19.37;;;12.50;;
5690;SDS011;2870;42.680;23.364;2023-10-19T01:00:34;21.53;;;14.03;;
5690;SDS011;2870;42.680;23.364;2023-10-19T01:03:08;22.17;;;13.90;;
5690;SDS011;2870;42.680;23.364;2023-10-19T01:05:41;20.30;;;14.20;;
5690;SDS011;2870;42.680;23.364;2023-10-19T01:08:14;25.30;;;14.43;;
5690;SDS011;2870;42.680;23.364;2023-10-19T01:10:49;19.40;;;13.20;;
5690;SDS011;2870;42.680;23.364;2023-10-19T01:13:17;20.73;;;13.80;;
5690;SDS011;2870;42.680;23.364;2023-10-19T01:15:52;24.37;;;12.93;;
5690;SDS011;2870;42.680;23.364;2023-10-19T01:18:19;22.90;;;14.33;;
5690;SDS011;2870;42.680;23.364;2023-10-19T01:20:47;23.00;;;14.43;;
5690;SDS011;2870;42.680;23.364;2023-10-19T01:23:18;19.10;;;13.87;;
5690;SDS011;2870;42.680;23.364;2023-10-19T01:25:51;23.50;;;13.30;;
5690;SDS011;2870;42.680;23.364;2023-10-19T01:28:26;22.00;;;14.20;;
5690;SDS011;2870;42.680;23.364;2023-10-19T01:31:07;20.37;;;13.03;;
5690;SDS011;2870;42.680;23.364;2023-10-19T01:33:39;20.40;;;14.93;;
5690;SDS011;2870;42.680;23.364;2023-10-19T01:36:07;21.10;;;15.17;;
5690;SDS011;2870;42.680;23.364;2023-10-19T01:38:38;21.13;;;15.10;;
5690;SDS011;2870;42.680;23.364;2023-10-19T01:41:05;22.93;;;14.40;;
5690;SDS011;2870;42.680;23.364;2023-10-19T01:43:38;21.00;;;14.40;;
5690;SDS011;2870;42.680;23.364;2023-10-19T01:46:05;23.30;;;15.43;;
5690;SDS011;2870;42.680;23.364;2023-10-19T01:48:37;22.40;;;14.07;;
5690;SDS011;2870;42.680;23.364;2023-10-19T01:51:05;25.07;;;14.23;;
5690;SDS011;2870;42.680;23.364;2023-10-19T01:53:36;24.60;;;15.97;;
5690;SDS011;2870;42.680;23.364;2023-10-19T01:56:06;23.67;;;14.87;;
5690;SDS011;2870;42.680;23.364;2023-10-19T01:58:35;21.03;;;14.70;;
5690;SDS011;2870;42.680;23.364;2023-10-19T02:04:05;20.40;;;13.40;;
5690;SDS011;2870;42.680;23.364;2023-10-19T02:06:34;17.67;;;12.80;;
5690;SDS011;2870;42.680;23.364;2023-10-19T02:09:03;20.40;;;14.13;;
5690;SDS011;2870;42.680;23.364;2023-10-19T02:11:43;21.37;;;14.07;;
5690;SDS011;2870;42.680;23.364;2023-10-19T02:14:12;20.23;;;14.03;;
5690;SDS011;2870;42.680;23.364;2023-10-19T02:16:39;18.60;;;13.77;;
5690;SDS011;2870;42.680;23.364;2023-10-19T02:19:06;22.00;;;15.07;;
5690;SDS011;2870;42.680;23.364;2023-10-19T02:21:32;20.17;;;13.07;;
5690;SDS011;2870;42.680;23.364;2023-10-19T02:24:04;22.57;;;14.40;;
5690;SDS011;2870;42.680;23.364;2023-10-19T02:26:32;25.30;;;16.10;;
5690;SDS011;2870;42.680;23.364;2023-10-19T02:29:01;19.70;;;13.77;;
5690;SDS011;2870;42.680;23.364;2023-10-19T02:31:33;20.80;;;15.57;;
5690;SDS011;2870;42.680;23.364;2023-10-19T02:34:03;21.97;;;15.50;;
5690;SDS011;2870;42.680;23.364;2023-10-19T02:36:29;20.50;;;15.73;;
5690;SDS011;2870;42.680;23.364;2023-10-19T02:38:57;24.30;;;16.23;;
5690;SDS011;2870;42.680;23.364;2023-10-19T02:41:24;27.00;;;16.20;;
5690;SDS011;2870;42.680;23.364;2023-10-19T02:43:52;22.80;;;16.20;;
5690;SDS011;2870;42.680;23.364;2023-10-19T02:46:28;21.73;;;16.07;;
5690;SDS011;2870;42.680;23.364;2023-10-19T02:48:55;19.40;;;14.40;;
5690;SDS011;2870;42.680;23.364;2023-10-19T02:51:22;22.33;;;16.27;;
5690;SDS011;2870;42.680;23.364;2023-10-19T02:53:49;23.97;;;15.80;;
5690;SDS011;2870;42.680;23.364;2023-10-19T02:56:15;24.43;;;17.20;;
5690;SDS011;2870;42.680;23.364;2023-10-19T02:58:44;25.70;;;17.80;;
5690;SDS011;2870;42.680;23.364;2023-10-19T03:01:14;24.50;;;16.50;;
5690;SDS011;2870;42.680;23.364;2023-10-19T03:03:48;25.20;;;16.53;;
5690;SDS011;2870;42.680;23.364;2023-10-19T03:06:19;28.00;;;17.27;;
5690;SDS011;2870;42.680;23.364;2023-10-19T03:08:46;26.50;;;15.67;;
5690;SDS011;2870;42.680;23.364;2023-10-19T03:11:16;21.73;;;15.73;;
5690;SDS011;2870;42.680;23.364;2023-10-19T03:13:42;23.83;;;16.23;;
5690;SDS011;2870;42.680;23.364;2023-10-19T03:16:09;25.20;;;16.73;;
5690;SDS011;2870;42.680;23.364;2023-10-19T03:18:35;25.30;;;16.50;;
5690;SDS011;2870;42.680;23.364;2023-10-19T03:21:05;25.73;;;16.20;;
5690;SDS011;2870;42.680;23.364;2023-10-19T03:23:31;22.77;;;16.30;;
5690;SDS011;2870;42.680;23.364;2023-10-19T03:25:59;24.03;;;16.97;;
5690;SDS011;2870;42.680;23.364;2023-10-19T03:28:47;24.80;;;18.00;;
5690;SDS011;2870;42.680;23.364;2023-10-19T03:31:19;24.37;;;17.40;;
5690;SDS011;2870;42.680;23.364;2023-10-19T03:33:46;24.13;;;16.30;;
5690;SDS011;2870;42.680;23.364;2023-10-19T03:36:17;29.10;;;18.40;;
5690;SDS011;2870;42.680;23.364;2023-10-19T03:38:43;32.50;;;19.20;;
5690;SDS011;2870;42.680;23.364;2023-10-19T03:41:11;32.30;;;17.90;;
5690;SDS011;2870;42.680;23.364;2023-10-19T03:43:39;28.10;;;19.20;;
5690;SDS011;2870;42.680;23.364;2023-10-19T03:46:06;32.60;;;19.03;;
5690;SDS011;2870;42.680;23.364;2023-10-19T03:48:44;27.67;;;18.00;;
5690;SDS011;2870;42.680;23.364;2023-10-19T03:51:11;24.90;;;18.47;;
5690;SDS011;2870;42.680;23.364;2023-10-19T03:53:41;29.43;;;18.60;;
5690;SDS011;2870;42.680;23.364;2023-10-19T03:56:13;27.80;;;17.03;;
5690;SDS011;2870;42.680;23.364;2023-10-19T03:58:42;27.20;;;18.73;;
5690;SDS011;2870;42.680;23.364;2023-10-19T04:01:12;31.43;;;19.00;;
5690;SDS011;2870;42.680;23.364;2023-10-19T04:03:41;31.00;;;19.50;;
5690;SDS011;2870;42.680;23.364;2023-10-19T04:06:08;31.73;;;19.27;;
5690;SDS011;2870;42.680;23.364;2023-10-19T04:08:39;31.57;;;20.43;;
5690;SDS011;2870;42.680;23.364;2023-10-19T04:11:07;29.60;;;19.70;;
5690;SDS011;2870;42.680;23.364;2023-10-19T04:13:36;31.40;;;20.10;;
5690;SDS011;2870;42.680;23.364;2023-10-19T04:16:04;39.97;;;19.33;;
5690;SDS011;2870;42.680;23.364;2023-10-19T04:18:33;30.60;;;18.80;;
5690;SDS011;2870;42.680;23.364;2023-10-19T04:21:03;27.37;;;19.50;;
5690;SDS011;2870;42.680;23.364;2023-10-19T04:23:30;41.03;;;19.17;;
5690;SDS011;2870;42.680;23.364;2023-10-19T04:26:00;36.23;;;18.80;;
5690;SDS011;2870;42.680;23.364;2023-10-19T04:28:31;29.87;;;18.03;;
5690;SDS011;2870;42.680;23.364;2023-10-19T04:31:03;33.80;;;17.83;;
5690;SDS011;2870;42.680;23.364;2023-10-19T04:33:31;28.70;;;17.57;;
5690;SDS011;2870;42.680;23.364;2023-10-19T04:35:59;28.70;;;18.33;;
5690;SDS011;2870;42.680;23.364;2023-10-19T04:38:26;32.10;;;21.10;;
5690;SDS011;2870;42.680;23.364;2023-10-19T04:41:02;30.20;;;19.97;;
5690;SDS011;2870;42.680;23.364;2023-10-19T04:43:33;31.87;;;22.00;;
5690;SDS011;2870;42.680;23.364;2023-10-19T04:46:04;37.50;;;22.67;;
5690;SDS011;2870;42.680;23.364;2023-10-19T04:48:34;38.00;;;23.00;;
5690;SDS011;2870;42.680;23.364;2023-10-19T04:51:01;32.73;;;22.83;;
5690;SDS011;2870;42.680;23.364;2023-10-19T04:53:30;35.50;;;24.33;;
5690;SDS011;2870;42.680;23.364;2023-10-19T04:55:57;35.67;;;23.67;;
5690;SDS011;2870;42.680;23.364;2023-10-19T04:58:25;31.93;;;23.27;;
5690;SDS011;2870;42.680;23.364;2023-10-19T05:00:54;34.93;;;23.90;;
5690;SDS011;2870;42.680;23.364;2023-10-19T05:03:23;34.87;;;23.97;;
5690;SDS011;2870;42.680;23.364;2023-10-19T05:05:50;39.37;;;23.23;;
5690;SDS011;2870;42.680;23.364;2023-10-19T05:08:17;38.67;;;25.97;;
5690;SDS011;2870;42.680;23.364;2023-10-19T05:10:44;35.67;;;23.57;;
5690;SDS011;2870;42.680;23.364;2023-10-19T05:13:11;41.67;;;26.20;;
5690;SDS011;2870;42.680;23.364;2023-10-19T05:15:39;36.50;;;23.83;;
5690;SDS011;2870;42.680;23.364;2023-10-19T05:18:09;42.83;;;24.03;;
5690;SDS011;2870;42.680;23.364;2023-10-19T05:20:37;35.70;;;24.37;;
5690;SDS011;2870;42.680;23.364;2023-10-19T05:23:05;38.10;;;23.40;;
5690;SDS011;2870;42.680;23.364;2023-10-19T05:25:33;36.53;;;23.50;;
5690;SDS011;2870;42.680;23.364;2023-10-19T05:28:00;38.97;;;22.53;;
5690;SDS011;2870;42.680;23.364;2023-10-19T05:30:26;34.80;;;21.20;;
5690;SDS011;2870;42.680;23.364;2023-10-19T05:32:55;31.73;;;19.60;;
5690;SDS011;2870;42.680;23.364;2023-10-19T05:35:24;30.13;;;16.03;;
5690;SDS011;2870;42.680;23.364;2023-10-19T05:37:51;36.33;;;13.93;;
5690;SDS011;2870;42.680;23.364;2023-10-19T05:40:19;20.40;;;13.50;;
5690;SDS011;2870;42.680;23.364;2023-10-19T05:42:47;16.63;;;12.20;;
5690;SDS011;2870;42.680;23.364;2023-10-19T05:45:14;19.17;;;13.20;;
5690;SDS011;2870;42.680;23.364;2023-10-19T05:47:41;25.37;;;17.73;;
5690;SDS011;2870;42.680;23.364;2023-10-19T05:50:10;29.97;;;19.13;;
5690;SDS011;2870;42.680;23.364;2023-10-19T05:52:41;30.60;;;20.40;;
5690;SDS011;2870;42.680;23.364;2023-10-19T05:55:08;37.80;;;24.03;;
5690;SDS011;2870;42.680;23.364;2023-10-19T05:57:36;49.70;;;25.90;;
5690;SDS011;2870;42.680;23.364;2023-10-19T06:00:07;42.97;;;24.27;;
5690;SDS011;2870;42.680;23.364;2023-10-19T06:02:38;41.60;;;26.60;;
5690;SDS011;2870;42.680;23.364;2023-10-19T06:05:06;50.10;;;30.70;;
5690;SDS011;2870;42.680;23.364;2023-10-19T06:07:33;47.80;;;30.30;;
5690;SDS011;2870;42.680;23.364;2023-10-19T06:10:01;50.80;;;28.40;;
5690;SDS011;2870;42.680;23.364;2023-10-19T06:12:30;44.07;;;28.00;;
5690;SDS011;2870;42.680;23.364;2023-10-19T06:14:58;39.67;;;24.10;;
5690;SDS011;2870;42.680;23.364;2023-10-19T06:17:27;32.93;;;22.47;;
5690;SDS011;2870;42.680;23.364;2023-10-19T06:19:54;38.87;;;23.47;;
5690;SDS011;2870;42.680;23.364;2023-10-19T06:22:21;36.87;;;25.10;;
5690;SDS011;2870;42.680;23.364;2023-10-19T06:24:48;46.00;;;28.27;;
5690;SDS011;2870;42.680;23.364;2023-10-19T06:27:16;38.03;;;24.87;;
5690;SDS011;2870;42.680;23.364;2023-10-19T06:29:43;35.53;;;22.03;;
5690;SDS011;2870;42.680;23.364;2023-10-19T06:32:10;33.40;;;20.90;;
5690;SDS011;2870;42.680;23.364;2023-10-19T06:34:38;33.73;;;18.87;;
5690;SDS011;2870;42.680;23.364;2023-10-19T06:37:05;29.63;;;19.70;;
5690;SDS011;2870;42.680;23.364;2023-10-19T06:39:35;30.70;;;17.93;;
5690;SDS011;2870;42.680;23.364;2023-10-19T06:42:05;26.97;;;17.60;;
5690;SDS011;2870;42.680;23.364;2023-10-19T06:44:36;29.10;;;17.57;;
5690;SDS011;2870;42.680;23.364;2023-10-19T06:47:03;37.17;;;17.43;;
5690;SDS011;2870;42.680;23.364;2023-10-19T06:49:32;25.87;;;16.50;;
5690;SDS011;2870;42.680;23.364;2023-10-19T06:51:59;35.80;;;17.97;;
5690;SDS011;2870;42.680;23.364;2023-10-19T06:54:26;28.40;;;16.43;;
5690;SDS011;2870;42.680;23.364;2023-10-19T06:56:54;29.83;;;16.10;;
5690;SDS011;2870;42.680;23.364;2023-10-19T06:59:21;22.50;;;15.47;;
5690;SDS011;2870;42.680;23.364;2023-10-19T07:01:50;24.10;;;15.50;;
5690;SDS011;2870;42.680;23.364;2023-10-19T07:04:17;21.60;;;14.10;;
5690;SDS011;2870;42.680;23.364;2023-10-19T07:06:44;17.67;;;13.60;;
5690;SDS011;2870;42.680;23.364;2023-10-19T07:09:13;20.60;;;14.07;;
5690;SDS011;2870;42.680;23.364;2023-10-19T07:11:40;22.47;;;13.50;;
5690;SDS011;2870;42.680;23.364;2023-10-19T07:14:10;23.67;;;15.07;;
5690;SDS011;2870;42.680;23.364;2023-10-19T07:16:38;22.20;;;15.50;;
5690;SDS011;2870;42.680;23.364;2023-10-19T07:19:07;20.70;;;14.30;;
5690;SDS011;2870;42.680;23.364;2023-10-19T07:21:35;33.10;;;16.53;;
5690;SDS011;2870;42.680;23.364;2023-10-19T07:24:03;24.27;;;15.63;;
5690;SDS011;2870;42.680;23.364;2023-10-19T07:26:34;23.90;;;15.00;;
5690;SDS011;2870;42.680;23.364;2023-10-19T07:29:08;25.80;;;17.10;;
5690;SDS011;2870;42.680;23.364;2023-10-19T07:31:37;21.73;;;15.30;;
5690;SDS011;2870;42.680;23.364;2023-10-19T07:34:05;30.10;;;16.97;;
5690;SDS011;2870;42.680;23.364;2023-10-19T07:36:33;30.70;;;18.00;;
5690;SDS011;2870;42.680;23.364;2023-10-19T07:39:02;27.67;;;15.97;;
5690;SDS011;2870;42.680;23.364;2023-10-19T07:41:28;27.77;;;16.33;;
5690;SDS011;2870;42.680;23.364;2023-10-19T07:44:01;25.93;;;17.03;;
5690;SDS011;2870;42.680;23.364;2023-10-19T07:46:28;25.30;;;15.30;;
5690;SDS011;2870;42.680;23.364;2023-10-19T07:48:56;22.63;;;14.57;;
5690;SDS011;2870;42.680;23.364;2023-10-19T07:51:25;25.27;;;14.80;;
5690;SDS011;2870;42.680;23.364;2023-10-19T07:53:52;23.83;;;14.70;;
5690;SDS011;2870;42.680;23.364;2023-10-19T07:56:19;22.77;;;14.83;;
5690;SDS011;2870;42.680;23.364;2023-10-19T07:58:46;32.73;;;15.60;;
5690;SDS011;2870;42.680;23.364;2023-10-19T08:01:13;22.73;;;14.43;;
5690;SDS011;2870;42.680;23.364;2023-10-19T08:03:40;22.60;;;14.67;;
5690;SDS011;2870;42.680;23.364;2023-10-19T08:06:07;23.13;;;13.53;;
5690;SDS011;2870;42.680;23.364;2023-10-19T08:08:36;21.87;;;13.10;;
5690;SDS011;2870;42.680;23.364;2023-10-19T08:11:03;21.70;;;14.30;;
5690;SDS011;2870;42.680;23.364;2023-10-19T08:13:30;21.30;;;14.70;;
5690;SDS011;2870;42.680;23.364;2023-10-19T08:15:58;18.83;;;13.33;;
5690;SDS011;2870;42.680;23.364;2023-10-19T08:18:25;19.73;;;14.07;;
5690;SDS011;2870;42.680;23.364;2023-10-19T08:20:52;20.87;;;13.50;;
5690;SDS011;2870;42.680;23.364;2023-10-19T08:23:18;18.67;;;13.33;;
5690;SDS011;2870;42.680;23.364;2023-10-19T08:25:50;19.03;;;13.63;;
5690;SDS011;2870;42.680;23.364;2023-10-19T08:28:17;18.90;;;13.03;;
5690;SDS011;2870;42.680;23.364;2023-10-19T08:30:43;17.70;;;12.20;;
5690;SDS011;2870;42.680;23.364;2023-10-19T08:33:21;18.87;;;12.03;;
5690;SDS011;2870;42.680;23.364;2023-10-19T08:35:51;18.27;;;11.70;;
5690;SDS011;2870;42.680;23.364;2023-10-19T08:38:19;16.93;;;12.40;;
5690;SDS011;2870;42.680;23.364;2023-10-19T08:40:46;19.43;;;11.50;;
5690;SDS011;2870;42.680;23.364;2023-10-19T08:43:16;27.27;;;12.10;;
5690;SDS011;2870;42.680;23.364;2023-10-19T08:45:44;18.37;;;12.23;;
5690;SDS011;2870;42.680;23.364;2023-10-19T08:48:11;19.40;;;13.23;;
5690;SDS011;2870;42.680;23.364;2023-10-19T08:50:39;20.60;;;12.90;;
5690;SDS011;2870;42.680;23.364;2023-10-19T08:53:06;19.10;;;12.60;;
5690;SDS011;2870;42.680;23.364;2023-10-19T08:55:34;22.87;;;12.70;;
5690;SDS011;2870;42.680;23.364;2023-10-19T08:58:01;25.57;;;12.17;;
5690;SDS011;2870;42.680;23.364;2023-10-19T09:00:39;17.33;;;12.40;;
5690;SDS011;2870;42.680;23.364;2023-10-19T09:03:12;19.57;;;11.60;;
5690;SDS011;2870;42.680;23.364;2023-10-19T09:05:39;14.57;;;10.10;;
5690;SDS011;2870;42.680;23.364;2023-10-19T09:08:06;15.67;;;10.97;;
5690;SDS011;2870;42.680;23.364;2023-10-19T09:10:35;17.90;;;11.17;;
5690;SDS011;2870;42.680;23.364;2023-10-19T09:13:03;16.67;;;11.70;;
5690;SDS011;2870;42.680;23.364;2023-10-19T09:15:34;17.30;;;11.50;;
5690;SDS011;2870;42.680;23.364;2023-10-19T09:18:11;19.00;;;11.97;;
5690;SDS011;2870;42.680;23.364;2023-10-19T09:20:40;25.13;;;12.37;;
5690;SDS011;2870;42.680;23.364;2023-10-19T09:23:07;18.03;;;12.60;;
5690;SDS011;2870;42.680;23.364;2023-10-19T09:25:34;17.07;;;11.77;;
5690;SDS011;2870;42.680;23.364;2023-10-19T09:28:01;16.70;;;11.40;;
5690;SDS011;2870;42.680;23.364;2023-10-19T09:30:28;19.20;;;12.27;;
5690;SDS011;2870;42.680;23.364;2023-10-19T09:32:57;19.57;;;12.60;;
5690;SDS011;2870;42.680;23.364;2023-10-19T09:35:26;19.43;;;12.80;;
5690;SDS011;2870;42.680;23.364;2023-10-19T09:37:56;25.63;;;13.03;;
5690;SDS011;2870;42.680;23.364;2023-10-19T09:40:24;18.83;;;12.30;;
5690;SDS011;2870;42.680;23.364;2023-10-19T09:42:54;17.47;;;11.60;;
5690;SDS011;2870;42.680;23.364;2023-10-19T09:45:23;17.43;;;11.33;;
5690;SDS011;2870;42.680;23.364;2023-10-19T09:47:53;17.77;;;10.63;;
5690;SDS011;2870;42.680;23.364;2023-10-19T09:50:23;23.63;;;10.97;;
5690;SDS011;2870;42.680;23.364;2023-10-19T09:52:51;15.03;;;11.00;;
5690;SDS011;2870;42.680;23.364;2023-10-19T09:55:20;14.67;;;10.57;;
5690;SDS011;2870;42.680;23.364;2023-10-19T09:57:52;17.23;;;11.20;;
5690;SDS011;2870;42.680;23.364;2023-10-19T10:00:21;17.30;;;11.93;;
5690;SDS011;2870;42.680;23.364;2023-10-19T10:02:49;16.80;;;11.27;;
5690;SDS011;2870;42.680;23.364;2023-10-19T10:08:29;23.77;;;11.20;;
5690;SDS011;2870;42.680;23.364;2023-10-19T10:10:58;19.90;;;11.30;;
5690;SDS011;2870;42.680;23.364;2023-10-19T10:13:39;17.73;;;11.63;;
5690;SDS011;2870;42.680;23.364;2023-10-19T10:16:07;17.47;;;10.13;;
5690;SDS011;2870;42.680;23.364;2023-10-19T10:18:34;17.60;;;11.30;;
5690;SDS011;2870;42.680;23.364;2023-10-19T10:21:07;18.53;;;12.57;;
5690;SDS011;2870;42.680;23.364;2023-10-19T10:23:40;15.40;;;10.60;;
5690;SDS011;2870;42.680;23.364;2023-10-19T10:26:09;20.20;;;11.90;;
5690;SDS011;2870;42.680;23.364;2023-10-19T10:28:36;17.23;;;10.33;;
5690;SDS011;2870;42.680;23.364;2023-10-19T10:31:12;13.87;;;9.83;;
5690;SDS011;2870;42.680;23.364;2023-10-19T10:33:41;15.00;;;9.83;;
5690;SDS011;2870;42.680;23.364;2023-10-19T10:36:11;15.27;;;9.93;;
5690;SDS011;2870;42.680;23.364;2023-10-19T10:38:38;15.70;;;10.10;;
5690;SDS011;2870;42.680;23.364;2023-10-19T10:41:06;15.40;;;10.70;;
5690;SDS011;2870;42.680;23.364;2023-10-19T10:43:47;17.90;;;9.80;;
5690;SDS011;2870;42.680;23.364;2023-10-19T10:46:15;19.27;;;10.27;;
5690;SDS011;2870;42.680;23.364;2023-10-19T10:48:43;21.90;;;10.93;;
5690;SDS011;2870;42.680;23.364;2023-10-19T10:51:17;17.97;;;11.53;;
5690;SDS011;2870;42.680;23.364;2023-10-19T10:53:48;16.33;;;11.40;;
5690;SDS011;2870;42.680;23.364;2023-10-19T10:56:16;15.93;;;11.10;;
5690;SDS011;2870;42.680;23.364;2023-10-19T10:58:44;28.03;;;10.73;;
5690;SDS011;2870;42.680;23.364;2023-10-19T11:01:11;17.57;;;11.30;;
5690;SDS011;2870;42.680;23.364;2023-10-19T11:03:38;15.10;;;9.60;;
5690;SDS011;2870;42.680;23.364;2023-10-19T11:06:05;19.17;;;10.40;;
5690;SDS011;2870;42.680;23.364;2023-10-19T11:08:38;16.50;;;10.63;;
5690;SDS011;2870;42.680;23.364;2023-10-19T11:11:07;22.27;;;11.37;;
5690;SDS011;2870;42.680;23.364;2023-10-19T11:13:36;17.00;;;11.40;;
5690;SDS011;2870;42.680;23.364;2023-10-19T11:16:04;20.23;;;10.40;;
5690;SDS011;2870;42.680;23.364;2023-10-19T11:18:33;16.33;;;10.70;;
5690;SDS011;2870;42.680;23.364;2023-10-19T11:21:02;22.80;;;10.73;;
5690;SDS011;2870;42.680;23.364;2023-10-19T11:23:36;15.17;;;10.10;;
5690;SDS011;2870;42.680;23.364;2023-10-19T11:26:03;15.37;;;10.30;;
5690;SDS011;2870;42.680;23.364;2023-10-19T11:28:31;15.33;;;9.20;;
5690;SDS011;2870;42.680;23.364;2023-10-19T11:31:10;15.40;;;10.10;;
5690;SDS011;2870;42.680;23.364;2023-10-19T11:33:37;15.63;;;9.00;;
5690;SDS011;2870;42.680;23.364;2023-10-19T11:36:05;13.60;;;9.73;;
5690;SDS011;2870;42.680;23.364;2023-10-19T11:38:31;20.60;;;11.37;;
5690;SDS011;2870;42.680;23.364;2023-10-19T11:41:00;19.93;;;10.47;;
5690;SDS011;2870;42.680;23.364;2023-10-19T11:43:28;14.57;;;9.80;;
5690;SDS011;2870;42.680;23.364;2023-10-19T11:45:55;14.50;;;8.93;;
5690;SDS011;2870;42.680;23.364;2023-10-19T11:48:21;12.10;;;8.93;;
5690;SDS011;2870;42.680;23.364;2023-10-19T11:50:48;12.90;;;9.17;;
5690;SDS011;2870;42.680;23.364;2023-10-19T11:53:15;13.53;;;7.70;;
5690;SDS011;2870;42.680;23.364;2023-10-19T11:55:42;14.80;;;9.20;;
5690;SDS011;2870;42.680;23.364;2023-10-19T11:58:10;12.57;;;9.10;;
5690;SDS011;2870;42.680;23.364;2023-10-19T12:00:39;18.63;;;8.70;;
5690;SDS011;2870;42.680;23.364;2023-10-19T12:03:08;14.77;;;9.23;;
5690;SDS011;2870;42.680;23.364;2023-10-19T12:05:35;13.37;;;9.63;;
5690;SDS011;2870;42.680;23.364;2023-10-19T12:08:03;14.80;;;8.97;;
5690;SDS011;2870;42.680;23.364;2023-10-19T12:10:31;16.70;;;10.10;;
5690;SDS011;2870;42.680;23.364;2023-10-19T12:13:00;15.27;;;9.30;;
5690;SDS011;2870;42.680;23.364;2023-10-19T12:15:30;17.90;;;9.60;;
5690;SDS011;2870;42.680;23.364;2023-10-19T12:17:57;14.30;;;8.30;;
5690;SDS011;2870;42.680;23.364;2023-10-19T12:20:24;12.40;;;8.53;;
5690;SDS011;2870;42.680;23.364;2023-10-19T12:22:51;20.27;;;10.23;;
5690;SDS011;2870;42.680;23.364;2023-10-19T12:25:19;14.67;;;8.83;;
5690;SDS011;2870;42.680;23.364;2023-10-19T12:27:46;12.57;;;9.23;;
5690;SDS011;2870;42.680;23.364;2023-10-19T12:30:13;11.40;;;8.07;;
5690;SDS011;2870;42.680;23.364;2023-10-19T12:32:47;18.30;;;7.50;;
5690;SDS011;2870;42.680;23.364;2023-10-19T12:35:16;16.63;;;7.87;;
5690;SDS011;2870;42.680;23.364;2023-10-19T12:37:45;10.43;;;7.40;;
5690;SDS011;2870;42.680;23.364;2023-10-19T12:40:16;11.83;;;8.00;;
5690;SDS011;2870;42.680;23.364;2023-10-19T12:42:56;9.80;;;6.97;;
5690;SDS011;2870;42.680;23.364;2023-10-19T12:45:24;10.80;;;7.23;;
5690;SDS011;2870;42.680;23.364;2023-10-19T12:47:52;10.50;;;7.27;;
5690;SDS011;2870;42.680;23.364;2023-10-19T12:50:20;11.80;;;7.47;;
5690;SDS011;2870;42.680;23.364;2023-10-19T12:52:48;11.43;;;6.90;;
5690;SDS011;2870;42.680;23.364;2023-10-19T12:55:15;10.67;;;6.80;;
5690;SDS011;2870;42.680;23.364;2023-10-19T12:57:42;9.30;;;6.23;;
5690;SDS011;2870;42.680;23.364;2023-10-19T13:00:10;11.27;;;6.30;;
5690;SDS011;2870;42.680;23.364;2023-10-19T13:02:52;13.37;;;6.63;;
5690;SDS011;2870;42.680;23.364;2023-10-19T13:05:25;17.90;;;8.60;;
5690;SDS011;2870;42.680;23.364;2023-10-19T13:07:52;17.03;;;7.20;;
5690;SDS011;2870;42.680;23.364;2023-10-19T13:10:23;13.50;;;6.87;;
5690;SDS011;2870;42.680;23.364;2023-10-19T13:12:57;9.70;;;6.43;;
5690;SDS011;2870;42.680;23.364;2023-10-19T13:15:26;10.17;;;6.60;;
5690;SDS011;2870;42.680;23.364;2023-10-19T13:17:57;9.50;;;6.90;;
5690;SDS011;2870;42.680;23.364;2023-10-19T13:20:25;11.00;;;6.70;;
5690;SDS011;2870;42.680;23.364;2023-10-19T13:22:53;11.13;;;6.20;;
5690;SDS011;2870;42.680;23.364;2023-10-19T13:25:21;9.67;;;6.60;;
5690;SDS011;2870;42.680;23.364;2023-10-19T13:28:04;15.43;;;7.10;;
5690;SDS011;2870;42.680;23.364;2023-10-19T13:30:35;18.57;;;6.40;;
5690;SDS011;2870;42.680;23.364;2023-10-19T13:33:05;9.60;;;7.00;;
5690;SDS011;2870;42.680;23.364;2023-10-19T13:35:34;11.00;;;5.50;;
5690;SDS011;2870;42.680;23.364;2023-10-19T13:38:02;14.87;;;7.63;;
5690;SDS011;2870;42.680;23.364;2023-10-19T13:40:29;22.40;;;6.40;;
5690;SDS011;2870;42.680;23.364;2023-10-19T13:42:56;10.53;;;6.37;;
5690;SDS011;2870;42.680;23.364;2023-10-19T13:45:23;11.57;;;5.80;;
5690;SDS011;2870;42.680;23.364;2023-10-19T13:47:50;9.80;;;6.50;;
5690;SDS011;2870;42.680;23.364;2023-10-19T13:50:21;12.97;;;7.33;;
5690;SDS011;2870;42.680;23.364;2023-10-19T13:52:50;15.73;;;6.20;;
5690;SDS011;2870;42.680;23.364;2023-10-19T13:55:18;10.53;;;6.50;;
5690;SDS011;2870;42.680;23.364;2023-10-19T13:57:46;12.07;;;6.50;;
5690;SDS011;2870;42.680;23.364;2023-10-19T14:00:13;13.40;;;6.70;;
5690;SDS011;2870;42.680;23.364;2023-10-19T14:02:45;12.43;;;6.07;;
5690;SDS011;2870;42.680;23.364;2023-10-19T14:05:12;14.73;;;6.37;;
5690;SDS011;2870;42.680;23.364;2023-10-19T14:07:40;10.87;;;6.63;;
5690;SDS011;2870;42.680;23.364;2023-10-19T14:10:08;17.83;;;6.80;;
5690;SDS011;2870;42.680;23.364;2023-10-19T14:12:38;14.53;;;6.13;;
5690;SDS011;2870;42.680;23.364;2023-10-19T14:15:08;15.97;;;6.90;;
5690;SDS011;2870;42.680;23.364;2023-10-19T14:17:38;13.27;;;7.00;;
5690;SDS011;2870;42.680;23.364;2023-10-19T14:20:06;9.20;;;6.10;;
5690;SDS011;2870;42.680;23.364;2023-10-19T14:22:37;12.63;;;6.83;;
5690;SDS011;2870;42.680;23.364;2023-10-19T14:25:07;10.80;;;6.20;;
5690;SDS011;2870;42.680;23.364;2023-10-19T14:27:38;12.70;;;7.43;;
5690;SDS011;2870;42.680;23.364;2023-10-19T14:30:06;11.13;;;6.70;;
5690;SDS011;2870;42.680;23.364;2023-10-19T14:32:35;14.43;;;5.67;;
5690;SDS011;2870;42.680;23.364;2023-10-19T14:35:02;8.70;;;6.00;;
5690;SDS011;2870;42.680;23.364;2023-10-19T14:37:31;12.67;;;6.30;;
5690;SDS011;2870;42.680;23.364;2023-10-19T14:39:57;10.60;;;6.40;;
5690;SDS011;2870;42.680;23.364;2023-10-19T14:42:26;17.33;;;6.40;;
5690;SDS011;2870;42.680;23.364;2023-10-19T14:44:56;11.60;;;6.30;;
5690;SDS011;2870;42.680;23.364;2023-10-19T14:47:22;8.93;;;6.43;;
5690;SDS011;2870;42.680;23.364;2023-10-19T14:49:49;27.53;;;7.80;;
5690;SDS011;2870;42.680;23.364;2023-10-19T14:52:16;13.23;;;6.70;;
5690;SDS011;2870;42.680;23.364;2023-10-19T14:54:43;10.87;;;7.07;;